Terminal Aerodrome Forecast
Issued by NWS

Current Version | Previous Version | Text Only | Print | Product List | Glossary On
Versions: 1 2 3 4 5 6 7 8 9 10 11 12 13 14 15 16 17 18
000
FTUS44 KLZK 261552 AAB
TAFHRO
TAF AMD
KHRO 261552Z 2616/2712 13009KT 4SM TSRA BR BKN003CB BKN050 OVC070
      TEMPO 2616/2618 VRB20G35KT 1SM TSRA OVC010CB
     FM261800 32010G20KT 5SM -RA BR BKN010 OVC040
      TEMPO 2618/2621 2SM -TSRA OVC015CB
     FM270000 30007KT P6SM -RA BKN020 OVC040=

USA.gov is the U.S. government's official web portal to all federal, state and local government web resources and services.